sensor_id;sensor_type;location;lat;lon;timestamp;temperature;humidity
46283;DHT22;32017;43.700;11.820;2022-11-15T00:00:37;3.90;99.90
46283;DHT22;32017;43.700;11.820;2022-11-15T00:02:57;4.00;99.90
46283;DHT22;32017;43.700;11.820;2022-11-15T00:05:16;3.90;99.90
46283;DHT22;32017;43.700;11.820;2022-11-15T00:07:36;3.90;99.90
46283;DHT22;32017;43.700;11.820;2022-11-15T00:10:15;3.60;99.90
46283;DHT22;32017;43.700;11.820;2022-11-15T00:12:35;3.40;99.90
46283;DHT22;32017;43.700;11.820;2022-11-15T00:14:54;3.20;99.90
46283;DHT22;32017;43.700;11.820;2022-11-15T00:17:14;3.10;99.90
46283;DHT22;32017;43.700;11.820;2022-11-15T00:19:34;3.00;99.90
46283;DHT22;32017;43.700;11.820;2022-11-15T00:21:54;3.10;99.90
46283;DHT22;32017;43.700;11.820;2022-11-15T00:24:13;3.00;99.90
46283;DHT22;32017;43.700;11.820;2022-11-15T00:26:33;3.00;99.90
46283;DHT22;32017;43.700;11.820;2022-11-15T00:28:53;3.20;99.90
46283;DHT22;32017;43.700;11.820;2022-11-15T00:31:14;3.20;99.90
46283;DHT22;32017;43.700;11.820;2022-11-15T00:33:34;3.20;99.90
46283;DHT22;32017;43.700;11.820;2022-11-15T00:36:08;3.20;99.90
46283;DHT22;32017;43.700;11.820;2022-11-15T00:38:36;3.40;99.90
46283;DHT22;32017;43.700;11.820;2022-11-15T00:40:56;3.50;99.90
46283;DHT22;32017;43.700;11.820;2022-11-15T00:43:16;3.60;99.90
46283;DHT22;32017;43.700;11.820;2022-11-15T00:45:36;3.60;99.90
46283;DHT22;32017;43.700;11.820;2022-11-15T00:47:55;3.70;99.90
46283;DHT22;32017;43.700;11.820;2022-11-15T00:50:16;3.70;99.90
46283;DHT22;32017;43.700;11.820;2022-11-15T00:52:36;3.90;99.90
46283;DHT22;32017;43.700;11.820;2022-11-15T00:54:56;3.90;99.90
46283;DHT22;32017;43.700;11.820;2022-11-15T00:57:15;4.10;99.90
46283;DHT22;32017;43.700;11.820;2022-11-15T00:59:35;3.90;99.90
46283;DHT22;32017;43.700;11.820;2022-11-15T01:01:55;3.90;99.90
46283;DHT22;32017;43.700;11.820;2022-11-15T01:04:14;3.90;99.90
46283;DHT22;32017;43.700;11.820;2022-11-15T01:06:34;3.80;99.90
46283;DHT22;32017;43.700;11.820;2022-11-15T01:08:54;3.90;99.90
46283;DHT22;32017;43.700;11.820;2022-11-15T01:11:14;3.90;99.90
46283;DHT22;32017;43.700;11.820;2022-11-15T01:13:35;4.00;99.90
46283;DHT22;32017;43.700;11.820;2022-11-15T01:15:55;4.00;99.90
46283;DHT22;32017;43.700;11.820;2022-11-15T01:18:15;3.90;99.90
46283;DHT22;32017;43.700;11.820;2022-11-15T01:20:38;3.90;99.90
46283;DHT22;32017;43.700;11.820;2022-11-15T01:22:58;3.90;99.90
46283;DHT22;32017;43.700;11.820;2022-11-15T01:25:18;3.90;99.90
46283;DHT22;32017;43.700;11.820;2022-11-15T01:27:38;3.90;99.90
46283;DHT22;32017;43.700;11.820;2022-11-15T01:29:58;3.90;99.90
46283;DHT22;32017;43.700;11.820;2022-11-15T01:32:17;3.90;99.90
46283;DHT22;32017;43.700;11.820;2022-11-15T01:34:37;3.80;99.90
46283;DHT22;32017;43.700;11.820;2022-11-15T01:36:57;3.90;99.90
46283;DHT22;32017;43.700;11.820;2022-11-15T01:39:17;4.00;99.90
46283;DHT22;32017;43.700;11.820;2022-11-15T01:41:37;4.10;99.90
46283;DHT22;32017;43.700;11.820;2022-11-15T01:46:55;4.10;99.90
46283;DHT22;32017;43.700;11.820;2022-11-15T01:49:18;4.10;99.90
46283;DHT22;32017;43.700;11.820;2022-11-15T01:51:39;4.10;99.90
46283;DHT22;32017;43.700;11.820;2022-11-15T01:54:04;4.20;99.90
46283;DHT22;32017;43.700;11.820;2022-11-15T01:56:28;4.20;99.90
46283;DHT22;32017;43.700;11.820;2022-11-15T01:58:50;4.10;99.90
46283;DHT22;32017;43.700;11.820;2022-11-15T02:01:12;4.20;99.90
46283;DHT22;32017;43.700;11.820;2022-11-15T02:03:42;4.10;99.90
46283;DHT22;32017;43.700;11.820;2022-11-15T02:06:05;4.10;99.90
46283;DHT22;32017;43.700;11.820;2022-11-15T02:08:25;4.10;99.90
46283;DHT22;32017;43.700;11.820;2022-11-15T02:10:48;4.20;99.90
46283;DHT22;32017;43.700;11.820;2022-11-15T02:13:08;4.20;99.90
46283;DHT22;32017;43.700;11.820;2022-11-15T02:15:35;4.20;99.90
46283;DHT22;32017;43.700;11.820;2022-11-15T02:18:24;4.30;99.90
46283;DHT22;32017;43.700;11.820;2022-11-15T02:20:52;4.30;99.90
46283;DHT22;32017;43.700;11.820;2022-11-15T02:31:17;4.40;99.90
46283;DHT22;32017;43.700;11.820;2022-11-15T02:38:54;4.30;99.90
46283;DHT22;32017;43.700;11.820;2022-11-15T02:41:34;4.30;99.90
46283;DHT22;32017;43.700;11.820;2022-11-15T02:44:13;4.30;99.90
46283;DHT22;32017;43.700;11.820;2022-11-15T02:46:42;4.20;99.90
46283;DHT22;32017;43.700;11.820;2022-11-15T02:49:22;4.30;99.90
46283;DHT22;32017;43.700;11.820;2022-11-15T02:51:45;4.30;99.90
46283;DHT22;32017;43.700;11.820;2022-11-15T02:54:06;4.30;99.90
46283;DHT22;32017;43.700;11.820;2022-11-15T02:56:26;4.30;99.90
46283;DHT22;32017;43.700;11.820;2022-11-15T02:59:04;4.30;99.90
46283;DHT22;32017;43.700;11.820;2022-11-15T03:04:22;4.30;99.90
46283;DHT22;32017;43.700;11.820;2022-11-15T03:07:00;4.30;99.90
46283;DHT22;32017;43.700;11.820;2022-11-15T03:09:35;4.30;99.90
46283;DHT22;32017;43.700;11.820;2022-11-15T03:12:09;4.40;99.90
46283;DHT22;32017;43.700;11.820;2022-11-15T03:14:37;4.50;99.90
46283;DHT22;32017;43.700;11.820;2022-11-15T03:17:16;4.60;99.90
46283;DHT22;32017;43.700;11.820;2022-11-15T03:19:45;4.70;99.90
46283;DHT22;32017;43.700;11.820;2022-11-15T03:22:10;4.60;99.90
46283;DHT22;32017;43.700;11.820;2022-11-15T03:24:31;4.70;99.90
46283;DHT22;32017;43.700;11.820;2022-11-15T03:26:55;4.60;99.90
46283;DHT22;32017;43.700;11.820;2022-11-15T03:29:22;4.60;99.90
46283;DHT22;32017;43.700;11.820;2022-11-15T03:31:46;4.50;99.90
46283;DHT22;32017;43.700;11.820;2022-11-15T03:34:27;4.40;99.90
46283;DHT22;32017;43.700;11.820;2022-11-15T03:36:50;4.50;99.90
46283;DHT22;32017;43.700;11.820;2022-11-15T03:39:12;4.50;99.90
46283;DHT22;32017;43.700;11.820;2022-11-15T03:47:10;4.50;99.90
46283;DHT22;32017;43.700;11.820;2022-11-15T03:49:35;4.50;99.90
46283;DHT22;32017;43.700;11.820;2022-11-15T03:51:59;4.50;99.90
46283;DHT22;32017;43.700;11.820;2022-11-15T03:54:20;4.50;99.90
46283;DHT22;32017;43.700;11.820;2022-11-15T03:56:40;4.60;99.90
46283;DHT22;32017;43.700;11.820;2022-11-15T03:58:59;4.60;99.90
46283;DHT22;32017;43.700;11.820;2022-11-15T04:01:20;4.50;99.90
46283;DHT22;32017;43.700;11.820;2022-11-15T04:03:40;4.60;99.90
46283;DHT22;32017;43.700;11.820;2022-11-15T04:06:00;4.70;99.90
46283;DHT22;32017;43.700;11.820;2022-11-15T04:08:20;4.70;99.90
46283;DHT22;32017;43.700;11.820;2022-11-15T04:10:39;4.80;99.90
46283;DHT22;32017;43.700;11.820;2022-11-15T04:12:59;4.80;99.90
46283;DHT22;32017;43.700;11.820;2022-11-15T04:15:21;4.90;99.90
46283;DHT22;32017;43.700;11.820;2022-11-15T04:17:46;4.90;99.90
46283;DHT22;32017;43.700;11.820;2022-11-15T04:22:47;4.80;99.90
46283;DHT22;32017;43.700;11.820;2022-11-15T04:25:26;4.90;99.90
46283;DHT22;32017;43.700;11.820;2022-11-15T04:27:51;4.80;99.90
46283;DHT22;32017;43.700;11.820;2022-11-15T04:30:11;4.80;99.90
46283;DHT22;32017;43.700;11.820;2022-11-15T04:32:30;4.90;99.90
46283;DHT22;32017;43.700;11.820;2022-11-15T04:34:51;4.80;99.90
46283;DHT22;32017;43.700;11.820;2022-11-15T04:37:10;4.70;99.90
46283;DHT22;32017;43.700;11.820;2022-11-15T04:39:33;4.70;99.90
46283;DHT22;32017;43.700;11.820;2022-11-15T04:41:53;4.70;99.90
46283;DHT22;32017;43.700;11.820;2022-11-15T04:44:12;4.70;99.90
46283;DHT22;32017;43.700;11.820;2022-11-15T04:46:32;4.70;99.90
46283;DHT22;32017;43.700;11.820;2022-11-15T04:48:52;4.70;99.90
46283;DHT22;32017;43.700;11.820;2022-11-15T04:51:18;4.80;99.90
46283;DHT22;32017;43.700;11.820;2022-11-15T04:53:38;4.70;99.90
46283;DHT22;32017;43.700;11.820;2022-11-15T04:55:58;4.70;99.90
46283;DHT22;32017;43.700;11.820;2022-11-15T04:58:18;4.80;99.90
46283;DHT22;32017;43.700;11.820;2022-11-15T05:00:38;4.70;99.90
46283;DHT22;32017;43.700;11.820;2022-11-15T05:02:59;4.70;99.90
46283;DHT22;32017;43.700;11.820;2022-11-15T05:05:37;4.80;99.90
46283;DHT22;32017;43.700;11.820;2022-11-15T05:07:57;4.80;99.90
46283;DHT22;32017;43.700;11.820;2022-11-15T05:10:17;4.90;99.90
46283;DHT22;32017;43.700;11.820;2022-11-15T05:12:37;4.90;99.90
46283;DHT22;32017;43.700;11.820;2022-11-15T05:14:57;4.90;99.90
46283;DHT22;32017;43.700;11.820;2022-11-15T05:17:17;4.90;99.90
46283;DHT22;32017;43.700;11.820;2022-11-15T05:19:36;5.00;99.90
46283;DHT22;32017;43.700;11.820;2022-11-15T05:21:57;4.90;99.90
46283;DHT22;32017;43.700;11.820;2022-11-15T05:24:17;5.00;99.90
46283;DHT22;32017;43.700;11.820;2022-11-15T05:26:37;5.00;99.90
46283;DHT22;32017;43.700;11.820;2022-11-15T05:28:58;5.00;99.90
46283;DHT22;32017;43.700;11.820;2022-11-15T05:31:18;5.00;99.90
46283;DHT22;32017;43.700;11.820;2022-11-15T05:33:41;5.10;99.90
46283;DHT22;32017;43.700;11.820;2022-11-15T05:38:27;5.10;99.90
46283;DHT22;32017;43.700;11.820;2022-11-15T05:40:47;5.10;99.90
46283;DHT22;32017;43.700;11.820;2022-11-15T05:43:08;5.00;99.90
46283;DHT22;32017;43.700;11.820;2022-11-15T05:45:29;5.00;99.90
46283;DHT22;32017;43.700;11.820;2022-11-15T05:47:50;4.90;99.90
46283;DHT22;32017;43.700;11.820;2022-11-15T05:50:16;4.90;99.90
46283;DHT22;32017;43.700;11.820;2022-11-15T05:52:37;4.90;99.90
46283;DHT22;32017;43.700;11.820;2022-11-15T05:54:58;4.90;99.90
46283;DHT22;32017;43.700;11.820;2022-11-15T05:57:19;4.90;99.90
46283;DHT22;32017;43.700;11.820;2022-11-15T05:59:38;4.90;99.90
46283;DHT22;32017;43.700;11.820;2022-11-15T06:01:59;5.00;99.90
46283;DHT22;32017;43.700;11.820;2022-11-15T06:04:19;5.00;99.90
46283;DHT22;32017;43.700;11.820;2022-11-15T06:06:39;5.00;99.90
46283;DHT22;32017;43.700;11.820;2022-11-15T06:08:59;5.00;99.90
46283;DHT22;32017;43.700;11.820;2022-11-15T06:11:18;5.00;99.90
46283;DHT22;32017;43.700;11.820;2022-11-15T06:13:38;5.00;99.90
46283;DHT22;32017;43.700;11.820;2022-11-15T06:15:58;5.00;99.90
46283;DHT22;32017;43.700;11.820;2022-11-15T06:18:18;5.10;99.90
46283;DHT22;32017;43.700;11.820;2022-11-15T06:20:38;5.10;99.90
46283;DHT22;32017;43.700;11.820;2022-11-15T06:22:59;5.20;99.90
46283;DHT22;32017;43.700;11.820;2022-11-15T06:25:19;5.20;99.90
46283;DHT22;32017;43.700;11.820;2022-11-15T06:27:39;5.20;99.90
46283;DHT22;32017;43.700;11.820;2022-11-15T06:29:59;5.30;99.90
46283;DHT22;32017;43.700;11.820;2022-11-15T06:32:19;5.30;99.90
46283;DHT22;32017;43.700;11.820;2022-11-15T06:34:38;5.40;99.90
46283;DHT22;32017;43.700;11.820;2022-11-15T06:36:58;5.40;99.90
46283;DHT22;32017;43.700;11.820;2022-11-15T06:39:18;5.30;99.90
46283;DHT22;32017;43.700;11.820;2022-11-15T06:41:37;5.30;99.90
46283;DHT22;32017;43.700;11.820;2022-11-15T06:43:57;5.30;99.90
46283;DHT22;32017;43.700;11.820;2022-11-15T06:46:17;5.30;99.90
46283;DHT22;32017;43.700;11.820;2022-11-15T06:48:37;5.20;99.90
46283;DHT22;32017;43.700;11.820;2022-11-15T06:50:59;5.20;99.90
46283;DHT22;32017;43.700;11.820;2022-11-15T06:53:19;5.20;99.90
46283;DHT22;32017;43.700;11.820;2022-11-15T06:55:39;5.20;99.90
46283;DHT22;32017;43.700;11.820;2022-11-15T06:57:58;5.20;99.90
46283;DHT22;32017;43.700;11.820;2022-11-15T07:00:19;5.20;99.90
46283;DHT22;32017;43.700;11.820;2022-11-15T07:02:39;5.20;99.90
46283;DHT22;32017;43.700;11.820;2022-11-15T07:04:59;5.30;99.90
46283;DHT22;32017;43.700;11.820;2022-11-15T07:07:19;5.30;99.90
46283;DHT22;32017;43.700;11.820;2022-11-15T07:09:39;5.30;99.90
46283;DHT22;32017;43.700;11.820;2022-11-15T07:11:59;5.30;99.90
46283;DHT22;32017;43.700;11.820;2022-11-15T07:14:25;5.40;99.90
46283;DHT22;32017;43.700;11.820;2022-11-15T07:16:45;5.40;99.90
46283;DHT22;32017;43.700;11.820;2022-11-15T07:19:05;5.50;99.90
46283;DHT22;32017;43.700;11.820;2022-11-15T07:21:24;5.50;99.90
46283;DHT22;32017;43.700;11.820;2022-11-15T07:23:46;5.60;99.90
46283;DHT22;32017;43.700;11.820;2022-11-15T07:26:07;5.60;99.90
46283;DHT22;32017;43.700;11.820;2022-11-15T07:28:27;5.60;99.90
46283;DHT22;32017;43.700;11.820;2022-11-15T07:30:47;5.70;99.90
46283;DHT22;32017;43.700;11.820;2022-11-15T07:33:07;5.70;99.90
46283;DHT22;32017;43.700;11.820;2022-11-15T07:35:28;5.70;99.90
46283;DHT22;32017;43.700;11.820;2022-11-15T07:38:00;5.80;99.90
46283;DHT22;32017;43.700;11.820;2022-11-15T07:40:21;5.80;99.90
46283;DHT22;32017;43.700;11.820;2022-11-15T07:42:41;5.80;99.90
46283;DHT22;32017;43.700;11.820;2022-11-15T07:45:12;5.80;99.90
46283;DHT22;32017;43.700;11.820;2022-11-15T07:47:32;5.90;99.90
46283;DHT22;32017;43.700;11.820;2022-11-15T07:49:52;5.90;99.90
46283;DHT22;32017;43.700;11.820;2022-11-15T07:52:12;6.00;99.90
46283;DHT22;32017;43.700;11.820;2022-11-15T07:54:32;6.00;99.90
46283;DHT22;32017;43.700;11.820;2022-11-15T07:56:52;6.10;99.90
46283;DHT22;32017;43.700;11.820;2022-11-15T07:59:11;6.10;99.90
46283;DHT22;32017;43.700;11.820;2022-11-15T08:01:31;6.20;99.90
46283;DHT22;32017;43.700;11.820;2022-11-15T08:03:51;6.30;99.90
46283;DHT22;32017;43.700;11.820;2022-11-15T08:06:11;6.30;99.90
46283;DHT22;32017;43.700;11.820;2022-11-15T08:08:30;6.30;99.90
46283;DHT22;32017;43.700;11.820;2022-11-15T08:10:51;6.40;99.90
46283;DHT22;32017;43.700;11.820;2022-11-15T08:13:12;6.40;99.90
46283;DHT22;32017;43.700;11.820;2022-11-15T08:15:34;6.40;99.90
46283;DHT22;32017;43.700;11.820;2022-11-15T08:18:00;6.40;99.90
46283;DHT22;32017;43.700;11.820;2022-11-15T08:20:20;6.40;99.90
46283;DHT22;32017;43.700;11.820;2022-11-15T08:22:39;6.50;99.90
46283;DHT22;32017;43.700;11.820;2022-11-15T08:24:59;6.50;99.90
46283;DHT22;32017;43.700;11.820;2022-11-15T08:27:18;6.50;99.90
46283;DHT22;32017;43.700;11.820;2022-11-15T08:29:38;6.50;99.90
46283;DHT22;32017;43.700;11.820;2022-11-15T08:31:58;6.50;99.90
46283;DHT22;32017;43.700;11.820;2022-11-15T08:34:18;6.60;99.90
46283;DHT22;32017;43.700;11.820;2022-11-15T08:36:37;6.60;99.90
46283;DHT22;32017;43.700;11.820;2022-11-15T08:39:05;6.70;99.90
46283;DHT22;32017;43.700;11.820;2022-11-15T08:41:30;6.80;99.90
46283;DHT22;32017;43.700;11.820;2022-11-15T08:43:50;6.90;99.90
46283;DHT22;32017;43.700;11.820;2022-11-15T08:46:12;6.90;99.90
46283;DHT22;32017;43.700;11.820;2022-11-15T08:48:32;6.90;99.90
46283;DHT22;32017;43.700;11.820;2022-11-15T08:50:56;6.90;99.90
46283;DHT22;32017;43.700;11.820;2022-11-15T08:53:16;7.00;99.90
46283;DHT22;32017;43.700;11.820;2022-11-15T08:55:37;7.00;99.90
46283;DHT22;32017;43.700;11.820;2022-11-15T08:57:58;7.10;99.90
46283;DHT22;32017;43.700;11.820;2022-11-15T09:00:18;7.10;99.90
46283;DHT22;32017;43.700;11.820;2022-11-15T09:02:39;7.10;99.90
46283;DHT22;32017;43.700;11.820;2022-11-15T09:05:00;7.10;99.90
46283;DHT22;32017;43.700;11.820;2022-11-15T09:07:19;7.20;99.90
46283;DHT22;32017;43.700;11.820;2022-11-15T09:09:40;7.20;99.90
46283;DHT22;32017;43.700;11.820;2022-11-15T09:11:59;7.10;99.90
46283;DHT22;32017;43.700;11.820;2022-11-15T09:14:22;7.20;99.90
46283;DHT22;32017;43.700;11.820;2022-11-15T09:16:41;7.30;99.90
46283;DHT22;32017;43.700;11.820;2022-11-15T09:19:01;7.40;99.90
46283;DHT22;32017;43.700;11.820;2022-11-15T09:21:21;7.40;99.90
46283;DHT22;32017;43.700;11.820;2022-11-15T09:23:41;7.40;99.90
46283;DHT22;32017;43.700;11.820;2022-11-15T09:26:03;7.40;99.90
46283;DHT22;32017;43.700;11.820;2022-11-15T09:28:23;7.30;99.90
46283;DHT22;32017;43.700;11.820;2022-11-15T09:30:43;7.30;99.90
46283;DHT22;32017;43.700;11.820;2022-11-15T09:33:10;7.30;99.90
46283;DHT22;32017;43.700;11.820;2022-11-15T09:35:31;7.20;99.90
46283;DHT22;32017;43.700;11.820;2022-11-15T09:37:51;7.30;99.90
46283;DHT22;32017;43.700;11.820;2022-11-15T09:40:17;7.40;99.90
46283;DHT22;32017;43.700;11.820;2022-11-15T09:45:28;7.40;99.90
46283;DHT22;32017;43.700;11.820;2022-11-15T09:50:34;7.40;99.90
46283;DHT22;32017;43.700;11.820;2022-11-15T09:52:55;7.40;99.90
46283;DHT22;32017;43.700;11.820;2022-11-15T09:55:15;7.50;99.90
46283;DHT22;32017;43.700;11.820;2022-11-15T10:00:45;7.60;99.90
46283;DHT22;32017;43.700;11.820;2022-11-15T10:03:12;7.60;99.90
46283;DHT22;32017;43.700;11.820;2022-11-15T10:05:40;7.60;99.90
46283;DHT22;32017;43.700;11.820;2022-11-15T10:12:47;7.80;99.90
46283;DHT22;32017;43.700;11.820;2022-11-15T10:15:15;7.80;99.90
46283;DHT22;32017;43.700;11.820;2022-11-15T10:20:25;7.90;99.90
46283;DHT22;32017;43.700;11.820;2022-11-15T10:22:48;8.00;99.90
46283;DHT22;32017;43.700;11.820;2022-11-15T10:27:40;8.00;99.90
46283;DHT22;32017;43.700;11.820;2022-11-15T10:30:04;8.10;99.90
46283;DHT22;32017;43.700;11.820;2022-11-15T10:32:25;8.10;99.90
46283;DHT22;32017;43.700;11.820;2022-11-15T10:34:46;8.10;99.90
46283;DHT22;32017;43.700;11.820;2022-11-15T10:37:06;8.20;99.90
46283;DHT22;32017;43.700;11.820;2022-11-15T10:39:26;8.20;99.90
46283;DHT22;32017;43.700;11.820;2022-11-15T10:41:46;8.10;99.90
46283;DHT22;32017;43.700;11.820;2022-11-15T10:46:40;8.10;99.90
46283;DHT22;32017;43.700;11.820;2022-11-15T10:49:17;8.10;99.90
46283;DHT22;32017;43.700;11.820;2022-11-15T10:51:45;8.00;99.90
46283;DHT22;32017;43.700;11.820;2022-11-15T10:54:09;8.10;99.90
46283;DHT22;32017;43.700;11.820;2022-11-15T10:56:35;8.10;99.90
46283;DHT22;32017;43.700;11.820;2022-11-15T10:58:56;8.10;99.90
46283;DHT22;32017;43.700;11.820;2022-11-15T11:01:18;8.10;99.90
46283;DHT22;32017;43.700;11.820;2022-11-15T11:03:39;8.10;99.90
46283;DHT22;32017;43.700;11.820;2022-11-15T11:08:27;8.10;99.90
46283;DHT22;32017;43.700;11.820;2022-11-15T11:10:58;8.10;99.90
46283;DHT22;32017;43.700;11.820;2022-11-15T11:13:29;8.10;99.90
46283;DHT22;32017;43.700;11.820;2022-11-15T11:21:04;8.20;99.90
46283;DHT22;32017;43.700;11.820;2022-11-15T11:23:53;8.20;99.90
46283;DHT22;32017;43.700;11.820;2022-11-15T11:29:10;8.20;99.90
46283;DHT22;32017;43.700;11.820;2022-11-15T11:35:15;8.20;99.90
46283;DHT22;32017;43.700;11.820;2022-11-15T11:42:55;8.30;99.90
46283;DHT22;32017;43.700;11.820;2022-11-15T11:50:45;8.30;99.90
46283;DHT22;32017;43.700;11.820;2022-11-15T11:53:14;8.30;99.90
46283;DHT22;32017;43.700;11.820;2022-11-15T11:55:42;8.30;99.90
46283;DHT22;32017;43.700;11.820;2022-11-15T11:58:12;8.30;99.90
46283;DHT22;32017;43.700;11.820;2022-11-15T12:00:35;8.30;99.90
46283;DHT22;32017;43.700;11.820;2022-11-15T12:03:14;8.30;99.90
46283;DHT22;32017;43.700;11.820;2022-11-15T12:05:56;8.30;99.90
46283;DHT22;32017;43.700;11.820;2022-11-15T12:08:31;8.30;99.90
46283;DHT22;32017;43.700;11.820;2022-11-15T12:13:26;8.30;99.90
46283;DHT22;32017;43.700;11.820;2022-11-15T12:18:15;8.30;99.90
46283;DHT22;32017;43.700;11.820;2022-11-15T12:20:39;8.30;99.90
46283;DHT22;32017;43.700;11.820;2022-11-15T12:36:04;8.20;99.90
46283;DHT22;32017;43.700;11.820;2022-11-15T12:41:19;8.20;99.90
46283;DHT22;32017;43.700;11.820;2022-11-15T12:43:41;8.30;99.90
46283;DHT22;32017;43.700;11.820;2022-11-15T12:46:03;8.20;99.90
46283;DHT22;32017;43.700;11.820;2022-11-15T12:58:28;8.10;99.90
46283;DHT22;32017;43.700;11.820;2022-11-15T13:00:58;8.20;99.90
46283;DHT22;32017;43.700;11.820;2022-11-15T13:03:21;8.20;99.90
46283;DHT22;32017;43.700;11.820;2022-11-15T13:08:03;8.20;99.90
46283;DHT22;32017;43.700;11.820;2022-11-15T13:12:50;8.20;99.90
46283;DHT22;32017;43.700;11.820;2022-11-15T13:17:38;8.40;99.90
46283;DHT22;32017;43.700;11.820;2022-11-15T13:20:01;8.40;99.90
46283;DHT22;32017;43.700;11.820;2022-11-15T13:22:21;8.40;99.90
46283;DHT22;32017;43.700;11.820;2022-11-15T13:25:01;8.30;99.90
46283;DHT22;32017;43.700;11.820;2022-11-15T13:27:21;8.40;99.90
46283;DHT22;32017;43.700;11.820;2022-11-15T13:29:43;8.40;99.90
46283;DHT22;32017;43.700;11.820;2022-11-15T13:32:04;8.30;99.90
46283;DHT22;32017;43.700;11.820;2022-11-15T13:34:31;8.30;99.90
46283;DHT22;32017;43.700;11.820;2022-11-15T13:39:41;8.30;99.90
46283;DHT22;32017;43.700;11.820;2022-11-15T13:42:01;8.30;99.90
46283;DHT22;32017;43.700;11.820;2022-11-15T13:44:29;8.30;99.90
46283;DHT22;32017;43.700;11.820;2022-11-15T13:47:05;8.30;99.90
46283;DHT22;32017;43.700;11.820;2022-11-15T13:49:30;8.20;99.90
46283;DHT22;32017;43.700;11.820;2022-11-15T13:51:53;8.20;99.90
46283;DHT22;32017;43.700;11.820;2022-11-15T13:56:42;8.10;99.90
46283;DHT22;32017;43.700;11.820;2022-11-15T13:59:29;8.10;99.90
46283;DHT22;32017;43.700;11.820;2022-11-15T14:01:50;8.10;99.90
46283;DHT22;32017;43.700;11.820;2022-11-15T14:04:13;8.10;99.90
46283;DHT22;32017;43.700;11.820;2022-11-15T14:06:45;8.20;99.90
46283;DHT22;32017;43.700;11.820;2022-11-15T14:11:32;8.20;99.90
46283;DHT22;32017;43.700;11.820;2022-11-15T14:14:19;8.20;99.90
46283;DHT22;32017;43.700;11.820;2022-11-15T14:16:54;8.20;99.90
46283;DHT22;32017;43.700;11.820;2022-11-15T14:24:31;8.20;99.90
46283;DHT22;32017;43.700;11.820;2022-11-15T14:26:51;8.20;99.90
46283;DHT22;32017;43.700;11.820;2022-11-15T14:29:28;8.20;99.90
46283;DHT22;32017;43.700;11.820;2022-11-15T14:31:47;8.20;99.90
46283;DHT22;32017;43.700;11.820;2022-11-15T14:34:08;8.20;99.90
46283;DHT22;32017;43.700;11.820;2022-11-15T14:36:28;8.20;99.90
46283;DHT22;32017;43.700;11.820;2022-11-15T14:38:48;8.20;99.90
46283;DHT22;32017;43.700;11.820;2022-11-15T14:41:21;8.20;99.90
46283;DHT22;32017;43.700;11.820;2022-11-15T14:43:41;8.10;99.90
46283;DHT22;32017;43.700;11.820;2022-11-15T14:46:01;8.10;99.90
46283;DHT22;32017;43.700;11.820;2022-11-15T14:48:21;8.10;99.90
46283;DHT22;32017;43.700;11.820;2022-11-15T14:50:41;8.20;99.90
46283;DHT22;32017;43.700;11.820;2022-11-15T14:53:01;8.20;99.90
46283;DHT22;32017;43.700;11.820;2022-11-15T14:55:25;8.20;99.90
46283;DHT22;32017;43.700;11.820;2022-11-15T14:57:45;8.20;99.90
46283;DHT22;32017;43.700;11.820;2022-11-15T15:00:06;8.20;99.90
46283;DHT22;32017;43.700;11.820;2022-11-15T15:02:27;8.20;99.90
46283;DHT22;32017;43.700;11.820;2022-11-15T15:04:47;8.20;99.90
46283;DHT22;32017;43.700;11.820;2022-11-15T15:07:07;8.20;99.90
46283;DHT22;32017;43.700;11.820;2022-11-15T15:09:27;8.20;99.90
46283;DHT22;32017;43.700;11.820;2022-11-15T15:11:46;8.20;99.90
46283;DHT22;32017;43.700;11.820;2022-11-15T15:14:07;8.20;99.90
46283;DHT22;32017;43.700;11.820;2022-11-15T15:16:27;8.20;99.90
46283;DHT22;32017;43.700;11.820;2022-11-15T15:18:47;8.30;99.90
46283;DHT22;32017;43.700;11.820;2022-11-15T15:21:21;8.20;99.90
46283;DHT22;32017;43.700;11.820;2022-11-15T15:23:42;8.20;99.90
46283;DHT22;32017;43.700;11.820;2022-11-15T15:26:01;8.20;99.90
46283;DHT22;32017;43.700;11.820;2022-11-15T15:28:21;8.30;99.90
46283;DHT22;32017;43.700;11.820;2022-11-15T15:30:41;8.20;99.90
46283;DHT22;32017;43.700;11.820;2022-11-15T15:33:01;8.30;99.90
46283;DHT22;32017;43.700;11.820;2022-11-15T15:35:21;8.30;99.90
46283;DHT22;32017;43.700;11.820;2022-11-15T15:37:42;8.30;99.90
46283;DHT22;32017;43.700;11.820;2022-11-15T15:40:02;8.30;99.90
46283;DHT22;32017;43.700;11.820;2022-11-15T15:42:23;8.40;99.90
46283;DHT22;32017;43.700;11.820;2022-11-15T15:44:43;8.40;99.90
46283;DHT22;32017;43.700;11.820;2022-11-15T15:47:12;8.50;99.90
46283;DHT22;32017;43.700;11.820;2022-11-15T15:49:32;8.50;99.90
46283;DHT22;32017;43.700;11.820;2022-11-15T15:51:52;8.50;99.90
46283;DHT22;32017;43.700;11.820;2022-11-15T15:54:11;8.50;99.90
46283;DHT22;32017;43.700;11.820;2022-11-15T15:56:31;8.50;99.90
46283;DHT22;32017;43.700;11.820;2022-11-15T15:58:51;8.40;99.90
46283;DHT22;32017;43.700;11.820;2022-11-15T16:01:12;8.40;99.90
46283;DHT22;32017;43.700;11.820;2022-11-15T16:03:32;8.40;99.90
46283;DHT22;32017;43.700;11.820;2022-11-15T16:05:52;8.40;99.90
46283;DHT22;32017;43.700;11.820;2022-11-15T16:08:30;8.30;99.90
46283;DHT22;32017;43.700;11.820;2022-11-15T16:11:07;8.40;99.90
46283;DHT22;32017;43.700;11.820;2022-11-15T16:13:28;8.50;99.90
46283;DHT22;32017;43.700;11.820;2022-11-15T16:15:52;8.50;99.90
46283;DHT22;32017;43.700;11.820;2022-11-15T16:18:16;8.40;99.90
46283;DHT22;32017;43.700;11.820;2022-11-15T16:20:41;8.40;99.90
46283;DHT22;32017;43.700;11.820;2022-11-15T16:23:08;8.30;99.90
46283;DHT22;32017;43.700;11.820;2022-11-15T16:25:32;8.30;99.90
46283;DHT22;32017;43.700;11.820;2022-11-15T16:27:54;8.40;99.90
46283;DHT22;32017;43.700;11.820;2022-11-15T16:30:16;8.40;99.90
46283;DHT22;32017;43.700;11.820;2022-11-15T16:32:36;8.40;99.90
46283;DHT22;32017;43.700;11.820;2022-11-15T16:34:56;8.50;99.90
46283;DHT22;32017;43.700;11.820;2022-11-15T16:37:24;8.50;99.90
46283;DHT22;32017;43.700;11.820;2022-11-15T16:39:44;8.40;99.90
46283;DHT22;32017;43.700;11.820;2022-11-15T16:42:03;8.50;99.90
46283;DHT22;32017;43.700;11.820;2022-11-15T16:44:23;8.50;99.90
46283;DHT22;32017;43.700;11.820;2022-11-15T16:46:43;8.40;99.90
46283;DHT22;32017;43.700;11.820;2022-11-15T16:49:12;8.40;99.90
46283;DHT22;32017;43.700;11.820;2022-11-15T16:51:32;8.40;99.90
46283;DHT22;32017;43.700;11.820;2022-11-15T16:53:53;8.40;99.90
46283;DHT22;32017;43.700;11.820;2022-11-15T16:58:37;8.40;99.90
46283;DHT22;32017;43.700;11.820;2022-11-15T17:00:57;8.40;99.90
46283;DHT22;32017;43.700;11.820;2022-11-15T17:03:17;8.40;99.90
46283;DHT22;32017;43.700;11.820;2022-11-15T17:05:37;8.50;99.90
46283;DHT22;32017;43.700;11.820;2022-11-15T17:07:57;8.50;99.90
46283;DHT22;32017;43.700;11.820;2022-11-15T17:10:17;8.40;99.90